Spiegelgracht — PCEO — position and weather

sailwx.info

Track history (hours):
 
Tides and Currents Weather Stations Pressure Air Temp Water Temp Dewpoint Dewpoint Depression Visibility Wind Speed Wind Dir Waves Ship Positions

Spiegelgracht

Last reported at 2017-Sep-26 04:00 UTC. Time now 2017-Sep-26 04:03 UTC.
Position N 54°32' E 011°19'.

Length 168 m; beam 25 m.

Type: Cargo ship. MMSI: 245789000.

Date/timePositionNaut miles runAvg speedWind from/ knotsBaromVisibWave heightAir tempDewpointWater temp
2017-Sep-26 04:00N 54°32' E 011°19'815.1
2017-Sep-26 03:30N 54°34' E 011°06'815.7
2017-Sep-26 03:00N 54°35' E 010°52'816.6
2017-Sep-26 02:30N 54°34' E 010°38'26 8.1
2017-Sep-25 23:17N 54°21' E 009°59'2 7.4
2017-Sep-25 23:00N 54°21' E 009°56'4 8.2
2017-Sep-25 22:30N 54°22' E 009°49'4 8.2
2017-Sep-25 22:00N 54°20' E 009°43'4 7.1
2017-Sep-25 21:30N 54°17' E 009°39'2 3.0
2017-Sep-25 20:56N 54°16' E 009°37'1 3.4
2017-Sep-25 20:30N 54°14' E 009°37'4 8.3
2017-Sep-25 20:01N 54°11' E 009°31'4 8.3
2017-Sep-25 19:31N 54°10' E 009°25'4 8.0
2017-Sep-25 19:00N 54°07' E 009°20'4 8.4
2017-Sep-25 18:30N 54°03' E 009°18'4 8.8
2017-Sep-25 18:01N 53°59' E 009°17'3 5.5
2017-Sep-25 17:30N 53°57' E 009°14'0 0.1
2017-Sep-25 17:00N 53°57' E 009°14'3 5.2
2017-Sep-25 16:30N 53°55' E 009°11'2 3.2
2017-Sep-25 16:01N 53°54' E 009°09'1 2.8
2017-Sep-25 15:30N 53°53' E 009°06'611.8
2017-Sep-25 15:00N 53°51' E 008°57'815.7
2017-Sep-25 14:30N 53°52' E 008°44'816.0
2017-Sep-25 14:00N 53°58' E 008°35'816.3
2017-Sep-25 13:30N 53°59' E 008°21'815.2
2017-Sep-25 13:00N 53°59' E 008°08'713.4
2017-Sep-25 12:30N 53°58' E 007°57'714.2
2017-Sep-25 12:00N 53°56' E 007°46'816.8
2017-Sep-25 11:30N 53°54' E 007°32'6817.1
2017-Sep-25 07:32N 53°37' E 005°41'216.8
2017-Sep-25 07:26N 53°36' E 005°38'716.9
2017-Sep-25 07:01N 53°34' E 005°27'816.8
2017-Sep-25 06:31N 53°32' E 005°13'816.6
2017-Sep-25 06:00N 53°29' E 005°00'816.3
2017-Sep-25 05:30N 53°26' E 004°47'815.3
2017-Sep-25 05:00N 53°20' E 004°39'816.0
2017-Sep-25 04:30N 53°13' E 004°32'815.6
2017-Sep-25 04:00N 53°06' E 004°27'815.3
2017-Sep-25 03:30N 52°59' E 004°22'815.2
2017-Sep-25 03:00N 52°52' E 004°16'815.0
2017-Sep-25 02:30N 52°46' E 004°09'714.5
2017-Sep-25 02:00N 52°40' E 004°02'713.8
2017-Sep-25 01:30N 52°36' E 003°52'713.7
2017-Sep-25 01:00N 52°32' E 003°44'713.6
2017-Sep-25 00:30N 52°27' E 003°37'713.4
2017-Sep-25 00:00N 52°22' E 003°29'713.0
2017-Sep-24 23:30N 52°17' E 003°22'713.0
2017-Sep-24 23:00N 52°12' E 003°15'612.9
2017-Sep-24 22:30N 52°07' E 003°08'813.0
2017-Sep-24 21:51N 52°00' E 003°00'513.1
2017-Sep-24 21:26N 51°57' E 002°53'613.6
2017-Sep-24 21:00N 51°52' E 002°47'713.8
2017-Sep-24 20:30N 51°47' E 002°40'714.1
2017-Sep-24 20:00N 51°42' E 002°32'714.5
2017-Sep-24 19:30N 51°36' E 002°25'714.7
2017-Sep-24 19:00N 51°31' E 002°17'714.8
2017-Sep-24 18:30N 51°25' E 002°10'815.2
2017-Sep-24 18:00N 51°18' E 002°05'714.5
2017-Sep-24 17:30N 51°12' E 001°58'815.7
2017-Sep-24 17:00N 51°09' E 001°47'816.3
2017-Sep-24 16:30N 51°03' E 001°37'816.5
2017-Sep-24 16:00N 50°56' E 001°29'916.7
2017-Sep-24 15:29N 50°48' E 001°24'816.2
2017-Sep-24 15:00N 50°42' E 001°18'815.9
2017-Sep-24 14:30N 50°36' E 001°08'11816.2
2017-Sep-24 07:14N 50°02' W 001°48'416.2
2017-Sep-24 07:00N 50°01' W 001°54'2615.9
2017-Sep-24 05:21N 49°54' W 002°33'715.5
2017-Sep-24 04:56N 49°52' W 002°43'715.5
2017-Sep-24 04:30N 49°50' W 002°53'815.5
2017-Sep-24 03:59N 49°47' W 003°05'715.7
2017-Sep-24 03:30N 49°43' W 003°14'815.8
2017-Sep-24 02:59N 49°39' W 003°25'2115.9
2017-Sep-24 01:40N 49°28' W 003°54'215.8
2017-Sep-24 01:30N 49°27' W 003°57'915.7
2017-Sep-24 00:57N 49°23' W 004°08'715.8
2017-Sep-24 00:30N 49°19' W 004°17'815.8
2017-Sep-23 23:59N 49°14' W 004°28'815.8
2017-Sep-23 23:29N 49°10' W 004°38'815.8
2017-Sep-23 23:00N 49°06' W 004°48'815.8
2017-Sep-23 22:28N 49°02' W 004°59'716.1
2017-Sep-23 22:00N 48°58' W 005°09'816.7
2017-Sep-23 21:30N 48°54' W 005°20'816.9
2017-Sep-23 21:00N 48°49' W 005°31'916.8
2017-Sep-23 20:29N 48°43' W 005°40'817.6
2017-Sep-23 20:00N 48°35' W 005°44'67716.1
2017-Sep-22 02:00N 37°39' W 009°32'915.4
2017-Sep-22 01:27N 37°30' W 009°30'715.4
2017-Sep-22 00:58N 37°23' W 009°28'715.3
2017-Sep-22 00:30N 37°16' W 009°26'815.1
2017-Sep-21 23:57N 37°08' W 009°24'714.9
2017-Sep-21 23:30N 37°02' W 009°22'815.0
2017-Sep-21 23:00N 36°54' W 009°19'815.7
2017-Sep-21 22:30N 36°49' W 009°13'815.7
2017-Sep-21 21:59N 36°44' W 009°04'816.3
2017-Sep-21 21:30N 36°42' W 008°55'816.4
2017-Sep-21 21:00N 36°39' W 008°45'816.3
2017-Sep-21 20:30N 36°36' W 008°36'816.2
2017-Sep-21 20:00N 36°34' W 008°26'816.5
2017-Sep-21 19:30N 36°31' W 008°16'816.9
2017-Sep-21 19:00N 36°29' W 008°06'816.8
2017-Sep-21 18:30N 36°26' W 007°56'816.9
2017-Sep-21 18:00N 36°23' W 007°46'917.1
2017-Sep-21 17:30N 36°21' W 007°36'1117.3
2017-Sep-21 16:53N 36°17' W 007°24'22916.4
2017-Sep-21 02:56N 36°24' W 002°39'817.8
2017-Sep-21 02:30N 36°25' W 002°30'1617.5
2017-Sep-21 01:34N 36°27' W 002°10'517.0
2017-Sep-21 01:17N 36°30' W 002°05'1317.4
2017-Sep-21 00:32N 36°39' W 001°53'0 9.8
2017-Sep-21 00:30N 36°39' W 001°53'2120.0
2017-Sep-20 23:27N 36°54' W 001°34'613.3
2017-Sep-20 22:59N 36°58' W 001°28'918.3
2017-Sep-20 22:31N 37°03' W 001°19'1718.0
2017-Sep-20 21:33N 37°14' W 001°02'117.9
2017-Sep-20 21:30N 37°14' W 001°02'918.0
2017-Sep-20 21:01N 37°20' W 000°53'918.1
2017-Sep-20 20:31N 37°26' W 000°45'917.7
2017-Sep-20 20:01N 37°32' W 000°37'917.3
2017-Sep-20 19:31N 37°39' W 000°30'917.4
2017-Sep-20 19:00N 37°46' W 000°24'917.2
2017-Sep-20 18:30N 37°54' W 000°18'817.1
2017-Sep-20 18:01N 38°00' W 000°12'917.2
2017-Sep-20 17:30N 38°08' W 000°06'917.2
2017-Sep-20 17:00N 38°15' E 000°00'816.9
2017-Sep-20 16:30N 38°22' E 000°06'35 0.8
2017-Sep-18 21:31N 37°51' W 000°14'015.1
2017-Sep-18 21:30N 37°51' W 000°14'815.1
2017-Sep-18 21:00N 37°45' W 000°20'815.2
2017-Sep-18 20:30N 37°39' W 000°25'815.3
2017-Sep-18 20:00N 37°32' W 000°31'1215.3
2017-Sep-18 19:13N 37°24' W 000°43'315.3
2017-Sep-18 19:00N 37°22' W 000°45'815.4
2017-Sep-18 18:30N 37°17' W 000°53'915.4
2017-Sep-18 17:56N 37°12' W 001°01'20917.1
2017-Sep-18 05:43N 36°01' W 005°06'420.2
2017-Sep-18 05:31N 36°00' W 005°11'1019.7
2017-Sep-18 05:01N 35°58' W 005°23'10018.3
2017-Sep-17 23:32N 35°46' W 007°26'017.3
2017-Sep-17 23:30N 35°46' W 007°27'1117.5
2017-Sep-17 22:54N 35°46' W 007°40'1317.4
2017-Sep-17 22:10N 35°45' W 007°55'317.1
2017-Sep-17 22:00N 35°44' W 007°59'917.3
2017-Sep-17 21:30N 35°44' W 008°09'34816.8
2017-Sep-17 00:44N 35°22' W 015°16'417.1
2017-Sep-17 00:28N 35°22' W 015°22'916.9
2017-Sep-16 23:55N 35°21' W 015°33'4616.6
2017-Sep-16 21:09N 35°19' W 016°30'  
Track history (hours):
 
Tides and Currents Weather Stations Pressure Air Temp Water Temp Dewpoint Dewpoint Depression Visibility Wind Speed Wind Dir Waves Ship Positions

Spiegelgracht

Last reported at 2017-Sep-26 04:00 UTC. Time now 2017-Sep-26 04:03 UTC.
Position N 54°32' E 011°19'.

Length 168 m; beam 25 m.

Type: Cargo ship. MMSI: 245789000.

Date/timePositionNaut miles runAvg speedWind from/ knotsBaromVisibWave heightAir tempDewpointWater temp
2017-Sep-26 04:00N 54°32' E 011°19'815.1
2017-Sep-26 03:30N 54°34' E 011°06'815.7
2017-Sep-26 03:00N 54°35' E 010°52'816.6
2017-Sep-26 02:30N 54°34' E 010°38'26 8.1
2017-Sep-25 23:17N 54°21' E 009°59'2 7.4
2017-Sep-25 23:00N 54°21' E 009°56'4 8.2
2017-Sep-25 22:30N 54°22' E 009°49'4 8.2
2017-Sep-25 22:00N 54°20' E 009°43'4 7.1
2017-Sep-25 21:30N 54°17' E 009°39'2 3.0
2017-Sep-25 20:56N 54°16' E 009°37'1 3.4
2017-Sep-25 20:30N 54°14' E 009°37'4 8.3
2017-Sep-25 20:01N 54°11' E 009°31'4 8.3
2017-Sep-25 19:31N 54°10' E 009°25'4 8.0
2017-Sep-25 19:00N 54°07' E 009°20'4 8.4
2017-Sep-25 18:30N 54°03' E 009°18'4 8.8
2017-Sep-25 18:01N 53°59' E 009°17'3 5.5
2017-Sep-25 17:30N 53°57' E 009°14'0 0.1
2017-Sep-25 17:00N 53°57' E 009°14'3 5.2
2017-Sep-25 16:30N 53°55' E 009°11'2 3.2
2017-Sep-25 16:01N 53°54' E 009°09'1 2.8
2017-Sep-25 15:30N 53°53' E 009°06'611.8
2017-Sep-25 15:00N 53°51' E 008°57'815.7
2017-Sep-25 14:30N 53°52' E 008°44'816.0
2017-Sep-25 14:00N 53°58' E 008°35'816.3
2017-Sep-25 13:30N 53°59' E 008°21'815.2
2017-Sep-25 13:00N 53°59' E 008°08'713.4
2017-Sep-25 12:30N 53°58' E 007°57'714.2
2017-Sep-25 12:00N 53°56' E 007°46'816.8
2017-Sep-25 11:30N 53°54' E 007°32'6817.1
2017-Sep-25 07:32N 53°37' E 005°41'216.8
2017-Sep-25 07:26N 53°36' E 005°38'716.9
2017-Sep-25 07:01N 53°34' E 005°27'816.8
2017-Sep-25 06:31N 53°32' E 005°13'816.6
2017-Sep-25 06:00N 53°29' E 005°00'816.3
2017-Sep-25 05:30N 53°26' E 004°47'815.3
2017-Sep-25 05:00N 53°20' E 004°39'816.0
2017-Sep-25 04:30N 53°13' E 004°32'815.6
2017-Sep-25 04:00N 53°06' E 004°27'815.3
2017-Sep-25 03:30N 52°59' E 004°22'815.2
2017-Sep-25 03:00N 52°52' E 004°16'815.0
2017-Sep-25 02:30N 52°46' E 004°09'714.5
2017-Sep-25 02:00N 52°40' E 004°02'713.8
2017-Sep-25 01:30N 52°36' E 003°52'713.7
2017-Sep-25 01:00N 52°32' E 003°44'713.6
2017-Sep-25 00:30N 52°27' E 003°37'713.4
2017-Sep-25 00:00N 52°22' E 003°29'713.0
2017-Sep-24 23:30N 52°17' E 003°22'713.0
2017-Sep-24 23:00N 52°12' E 003°15'612.9
2017-Sep-24 22:30N 52°07' E 003°08'813.0
2017-Sep-24 21:51N 52°00' E 003°00'513.1
2017-Sep-24 21:26N 51°57' E 002°53'613.6
2017-Sep-24 21:00N 51°52' E 002°47'713.8
2017-Sep-24 20:30N 51°47' E 002°40'714.1
2017-Sep-24 20:00N 51°42' E 002°32'714.5
2017-Sep-24 19:30N 51°36' E 002°25'714.7
2017-Sep-24 19:00N 51°31' E 002°17'714.8
2017-Sep-24 18:30N 51°25' E 002°10'815.2
2017-Sep-24 18:00N 51°18' E 002°05'714.5
2017-Sep-24 17:30N 51°12' E 001°58'815.7
2017-Sep-24 17:00N 51°09' E 001°47'816.3
2017-Sep-24 16:30N 51°03' E 001°37'816.5
2017-Sep-24 16:00N 50°56' E 001°29'916.7
2017-Sep-24 15:29N 50°48' E 001°24'816.2
2017-Sep-24 15:00N 50°42' E 001°18'815.9
2017-Sep-24 14:30N 50°36' E 001°08'11816.2
2017-Sep-24 07:14N 50°02' W 001°48'416.2
2017-Sep-24 07:00N 50°01' W 001°54'2615.9
2017-Sep-24 05:21N 49°54' W 002°33'715.5
2017-Sep-24 04:56N 49°52' W 002°43'715.5
2017-Sep-24 04:30N 49°50' W 002°53'815.5
2017-Sep-24 03:59N 49°47' W 003°05'715.7
2017-Sep-24 03:30N 49°43' W 003°14'815.8
2017-Sep-24 02:59N 49°39' W 003°25'2115.9
2017-Sep-24 01:40N 49°28' W 003°54'215.8
2017-Sep-24 01:30N 49°27' W 003°57'915.7
2017-Sep-24 00:57N 49°23' W 004°08'715.8
2017-Sep-24 00:30N 49°19' W 004°17'815.8
2017-Sep-23 23:59N 49°14' W 004°28'815.8
2017-Sep-23 23:29N 49°10' W 004°38'815.8
2017-Sep-23 23:00N 49°06' W 004°48'815.8
2017-Sep-23 22:28N 49°02' W 004°59'716.1
2017-Sep-23 22:00N 48°58' W 005°09'816.7
2017-Sep-23 21:30N 48°54' W 005°20'816.9
2017-Sep-23 21:00N 48°49' W 005°31'916.8
2017-Sep-23 20:29N 48°43' W 005°40'817.6
2017-Sep-23 20:00N 48°35' W 005°44'67716.1
2017-Sep-22 02:00N 37°39' W 009°32'915.4
2017-Sep-22 01:27N 37°30' W 009°30'715.4
2017-Sep-22 00:58N 37°23' W 009°28'715.3
2017-Sep-22 00:30N 37°16' W 009°26'815.1
2017-Sep-21 23:57N 37°08' W 009°24'714.9
2017-Sep-21 23:30N 37°02' W 009°22'815.0
2017-Sep-21 23:00N 36°54' W 009°19'815.7
2017-Sep-21 22:30N 36°49' W 009°13'815.7
2017-Sep-21 21:59N 36°44' W 009°04'816.3
2017-Sep-21 21:30N 36°42' W 008°55'816.4
2017-Sep-21 21:00N 36°39' W 008°45'816.3
2017-Sep-21 20:30N 36°36' W 008°36'816.2
2017-Sep-21 20:00N 36°34' W 008°26'816.5
2017-Sep-21 19:30N 36°31' W 008°16'816.9
2017-Sep-21 19:00N 36°29' W 008°06'816.8
2017-Sep-21 18:30N 36°26' W 007°56'816.9
2017-Sep-21 18:00N 36°23' W 007°46'917.1
2017-Sep-21 17:30N 36°21' W 007°36'1117.3
2017-Sep-21 16:53N 36°17' W 007°24'22916.4
2017-Sep-21 02:56N 36°24' W 002°39'817.8
2017-Sep-21 02:30N 36°25' W 002°30'1617.5
2017-Sep-21 01:34N 36°27' W 002°10'517.0
2017-Sep-21 01:17N 36°30' W 002°05'1317.4
2017-Sep-21 00:32N 36°39' W 001°53'0 9.8
2017-Sep-21 00:30N 36°39' W 001°53'2120.0
2017-Sep-20 23:27N 36°54' W 001°34'613.3
2017-Sep-20 22:59N 36°58' W 001°28'918.3
2017-Sep-20 22:31N 37°03' W 001°19'1718.0
2017-Sep-20 21:33N 37°14' W 001°02'117.9
2017-Sep-20 21:30N 37°14' W 001°02'918.0
2017-Sep-20 21:01N 37°20' W 000°53'918.1
2017-Sep-20 20:31N 37°26' W 000°45'917.7
2017-Sep-20 20:01N 37°32' W 000°37'917.3
2017-Sep-20 19:31N 37°39' W 000°30'917.4
2017-Sep-20 19:00N 37°46' W 000°24'917.2
2017-Sep-20 18:30N 37°54' W 000°18'817.1
2017-Sep-20 18:01N 38°00' W 000°12'917.2
2017-Sep-20 17:30N 38°08' W 000°06'917.2
2017-Sep-20 17:00N 38°15' E 000°00'816.9
2017-Sep-20 16:30N 38°22' E 000°06'35 0.8
2017-Sep-18 21:31N 37°51' W 000°14'015.1
2017-Sep-18 21:30N 37°51' W 000°14'815.1
2017-Sep-18 21:00N 37°45' W 000°20'815.2
2017-Sep-18 20:30N 37°39' W 000°25'815.3
2017-Sep-18 20:00N 37°32' W 000°31'1215.3
2017-Sep-18 19:13N 37°24' W 000°43'315.3
2017-Sep-18 19:00N 37°22' W 000°45'815.4
2017-Sep-18 18:30N 37°17' W 000°53'915.4
2017-Sep-18 17:56N 37°12' W 001°01'20917.1
2017-Sep-18 05:43N 36°01' W 005°06'420.2
2017-Sep-18 05:31N 36°00' W 005°11'1019.7
2017-Sep-18 05:01N 35°58' W 005°23'10018.3
2017-Sep-17 23:32N 35°46' W 007°26'017.3
2017-Sep-17 23:30N 35°46' W 007°27'1117.5
2017-Sep-17 22:54N 35°46' W 007°40'1317.4
2017-Sep-17 22:10N 35°45' W 007°55'317.1
2017-Sep-17 22:00N 35°44' W 007°59'917.3
2017-Sep-17 21:30N 35°44' W 008°09'34816.8
2017-Sep-17 00:44N 35°22' W 015°16'417.1
2017-Sep-17 00:28N 35°22' W 015°22'916.9
2017-Sep-16 23:55N 35°21' W 015°33'4616.6
2017-Sep-16 21:09N 35°19' W 016°30'  

Dump ship's entire track history